»·PEaware :: N478RD KPSP-L35

N478RD :: KPSP-L35

FLIGHT INFORMATION

Flight Status: Arrived
Operator: Privately registered:
United States
More flights under this callsign
Pilot: Jari J. (4222)
Aircraft: Unknown
(CP30)
More flights by this aircraft type
Origin: KPSP Palm Springs Intl
United States
Destination: L35 Big Bear City
United States
More flights between these airports :: More routes between these airports
Route: +DCT
File this flight plan on PilotEdge
Remarks:
Altitude:
(Current/Filed)
7,500ft
Speed:
(Current/Filed)
125kts
Departed: 29-Jan-16 09:44 AM
Arrived: 29-Jan-16 10:39 AM
Distance/Time
Traveled:
31nm/0:55
Distance/Time
To Go:
Arrived

Flight Plot

Page will automatically refresh every two minutes.


Map Options




Map Legend


Flown Route
Filed Route
Departure Airport
Arrival Airport
Navaid (VOR, NDB)
Fix

Horizontal Profiles

Position Reports

Time Latitude Longitude Heading Altitude Ground
Speed
29-Jan-16 09:33 33.823423 -116.497660 52 480ft 0kts
29-Jan-16 09:34 33.823423 -116.497660 52 480ft 0kts
29-Jan-16 09:35 33.823423 -116.497660 52 480ft 0kts
29-Jan-16 09:36 33.824172 -116.498345 311 480ft 11kts
29-Jan-16 09:37 33.824579 -116.499618 236 480ft 0kts
29-Jan-16 09:38 33.824578 -116.499619 236 480ft 0kts
29-Jan-16 09:39 33.836093 -116.510718 322 1093ft 91kts
29-Jan-16 09:55 33.822874 -116.497892 53 480ft 0kts
29-Jan-16 09:56 33.822874 -116.497890 54 480ft 0kts
29-Jan-16 09:58 33.822875 -116.497889 54 480ft 0kts
29-Jan-16 09:59 33.822876 -116.497887 54 480ft 0kts
29-Jan-16 10:00 33.822877 -116.497886 55 480ft 0kts
29-Jan-16 10:01 33.822878 -116.497885 55 480ft 0kts
29-Jan-16 10:02 33.822878 -116.497883 55 480ft 0kts
29-Jan-16 10:03 33.822879 -116.497882 56 480ft 0kts
29-Jan-16 10:04 33.822886 -116.497870 47 480ft 1kts
29-Jan-16 10:05 33.824602 -116.499027 313 480ft 13kts
29-Jan-16 10:06 33.824625 -116.499565 228 480ft 0kts
29-Jan-16 10:07 33.825090 -116.500747 320 480ft 26kts
29-Jan-16 10:08 33.843215 -116.515132 325 1306ft 84kts
29-Jan-16 10:09 33.866514 -116.525092 357 1999ft 90kts
29-Jan-16 10:10 33.893804 -116.525525 25 2017ft 104kts
29-Jan-16 10:11 33.918642 -116.510855 25 2061ft 94kts
29-Jan-16 10:12 33.933038 -116.495649 10 2742ft 59kts
29-Jan-16 10:13 33.953283 -116.500217 327 3134ft 76kts
29-Jan-16 10:14 33.968707 -116.512455 327 4067ft 64kts
29-Jan-16 10:15 33.985601 -116.525842 327 4808ft 83kts
29-Jan-16 10:16 34.006415 -116.542104 328 5357ft 92kts
29-Jan-16 10:17 34.028306 -116.559216 328 5861ft 93kts
29-Jan-16 10:18 34.049973 -116.576253 328 6353ft 91kts
29-Jan-16 10:19 34.072117 -116.588956 348 6841ft 86kts
29-Jan-16 10:20 34.095892 -116.594542 348 7109ft 94kts
29-Jan-16 10:21 34.122492 -116.601479 348 7230ft 90kts
29-Jan-16 10:22 34.144378 -116.607618 348 7754ft 77kts
29-Jan-16 10:23 34.166266 -116.613354 348 8100ft 83kts
29-Jan-16 10:24 34.184576 -116.628103 314 8426ft 82kts
29-Jan-16 10:25 34.201021 -116.648169 314 8776ft 83kts
29-Jan-16 10:26 34.215834 -116.669790 285 9133ft 89kts
29-Jan-16 10:27 34.222526 -116.700101 304 9006ft 94kts
29-Jan-16 10:28 34.245630 -116.717307 333 8394ft 99kts
29-Jan-16 10:29 34.259547 -116.744560 288 7962ft 100kts
29-Jan-16 10:30 34.264354 -116.776057 269 7921ft 93kts
29-Jan-16 10:31 34.263818 -116.805860 268 7538ft 84kts
29-Jan-16 10:32 34.263878 -116.830510 270 7063ft 61kts
29-Jan-16 10:33 34.263819 -116.850914 268 6752ft 46kts
29-Jan-16 10:34 34.263712 -116.856077 235 6751ft 10kts
29-Jan-16 10:35 34.262350 -116.854171 127 6751ft 8kts
29-Jan-16 10:36 34.262301 -116.853913 85 6751ft 0kts
29-Jan-16 10:37 34.262301 -116.853913 85 6751ft 0kts
29-Jan-16 10:38 34.262301 -116.853913 85 6751ft 0kts
29-Jan-16 10:39 34.262301 -116.853913 85 6751ft 0kts
29-Jan-16 10:40 34.262301 -116.853913 85 6751ft 0kts
29-Jan-16 10:41 34.262301 -116.853913 85 6751ft 0kts
29-Jan-16 10:42 34.262301 -116.853913 85 6751ft 0kts
29-Jan-16 10:43 34.262301 -116.853913 85 6751ft 0kts
29-Jan-16 10:44 34.262301 -116.853913 85 6751ft 0kts
29-Jan-16 10:45 34.262301 -116.853913 85 6751ft 0kts
29-Jan-16 10:46 34.262301 -116.853913 85 6751ft 0kts
29-Jan-16 10:47 34.262301 -116.853913 85 6751ft 0kts
29-Jan-16 10:48 34.262301 -116.853913 85 6751ft 0kts

Navigation Log

Ident Type
Flight plan parsing failed, navigation log unavailable